createdAt,value
2022-12-06T00:04:32.855Z,11.12
2022-12-06T00:09:36.944Z,11.00
2022-12-06T00:14:41.051Z,11.93
2022-12-06T00:19:46.544Z,10.32
2022-12-06T00:24:50.657Z,13.77
2022-12-06T00:29:54.766Z,11.68
2022-12-06T00:35:00.234Z,12.15
2022-12-06T00:40:04.555Z,13.50
2022-12-06T00:45:10.093Z,21.85
2022-12-06T00:50:15.689Z,23.95
2022-12-06T00:55:19.746Z,16.67
2022-12-06T01:00:23.863Z,17.48
2022-12-06T01:05:29.791Z,16.70
2022-12-06T01:10:33.823Z,15.52
2022-12-06T01:15:37.989Z,20.17
2022-12-06T01:20:43.176Z,18.15
2022-12-06T01:25:53.544Z,22.92
2022-12-06T01:30:57.231Z,19.90
2022-12-06T01:36:02.569Z,23.23
2022-12-06T01:41:06.356Z,20.58
2022-12-06T01:46:24.290Z,20.35
2022-12-06T01:51:30.509Z,19.83
2022-12-06T01:56:34.409Z,21.35
2022-12-06T02:01:40.321Z,16.50
2022-12-06T02:06:46.892Z,22.17
2022-12-06T02:11:50.575Z,16.75
2022-12-06T02:17:14.965Z,24.12
2022-12-06T02:22:27.339Z,25.00
2022-12-06T02:27:51.874Z,17.15
2022-12-06T02:33:04.470Z,20.50
2022-12-06T02:38:14.897Z,22.95
2022-12-06T02:43:23.614Z,15.30
2022-12-06T02:48:28.867Z,18.83
2022-12-06T02:53:35.404Z,13.30
2022-12-06T02:58:39.500Z,19.87
2022-12-06T03:04:05.346Z,17.27
2022-12-06T03:09:19.517Z,16.83
2022-12-06T03:14:25.268Z,19.42
2022-12-06T03:19:32.066Z,17.12
2022-12-06T03:24:39.700Z,20.83
2022-12-06T03:29:48.905Z,18.62
2022-12-06T03:34:56.851Z,24.50
2022-12-06T03:40:08.136Z,25.15
2022-12-06T03:45:13.363Z,14.63
2022-12-06T03:50:23.164Z,16.73
2022-12-06T03:55:26.826Z,16.80
2022-12-06T04:00:30.629Z,13.27
2022-12-06T04:05:35.626Z,17.95
2022-12-06T04:10:39.250Z,21.15
2022-12-06T04:15:42.992Z,16.83
2022-12-06T04:21:14.098Z,14.00
2022-12-06T04:26:20.547Z,19.17
2022-12-06T04:31:43.061Z,20.30
2022-12-06T04:37:05.787Z,23.52
2022-12-06T04:42:27.578Z,22.85
2022-12-06T04:47:31.271Z,20.73
2022-12-06T04:52:36.563Z,18.35
2022-12-06T04:57:40.307Z,20.88
2022-12-06T05:02:44.065Z,16.08
2022-12-06T05:07:49.159Z,19.08
2022-12-06T05:12:52.842Z,14.82
2022-12-06T05:17:56.598Z,20.35
2022-12-06T05:23:01.682Z,18.25
2022-12-06T05:28:05.960Z,18.90
2022-12-06T05:33:09.678Z,13.05
2022-12-06T05:38:14.764Z,19.73
2022-12-06T05:43:18.708Z,22.05
2022-12-06T05:48:22.852Z,18.33
2022-12-06T05:53:27.992Z,13.05
2022-12-06T05:58:31.693Z,17.08
2022-12-06T06:03:35.905Z,21.55
2022-12-06T06:08:41.230Z,20.90
2022-12-06T06:13:44.908Z,18.08
2022-12-06T06:18:48.702Z,24.15
2022-12-06T06:23:53.831Z,21.48
2022-12-06T06:28:57.596Z,19.98
2022-12-06T06:34:01.293Z,17.42
2022-12-06T06:39:06.403Z,17.05
2022-12-06T06:44:10.154Z,22.55
2022-12-06T06:49:14.024Z,17.50
2022-12-06T06:54:19.085Z,15.98
2022-12-06T06:59:23.149Z,12.82
2022-12-06T07:04:26.868Z,13.35
2022-12-06T07:09:31.940Z,11.88
2022-12-06T07:14:36.087Z,11.07
2022-12-06T07:19:39.807Z,19.12
2022-12-06T07:24:50.787Z,16.67
2022-12-06T07:29:56.012Z,12.80
2022-12-06T07:34:59.705Z,17.23
2022-12-06T07:40:05.331Z,15.77
2022-12-06T07:45:10.167Z,13.13
2022-12-06T07:50:18.131Z,10.63
2022-12-06T07:55:23.838Z,13.30
2022-12-06T08:00:27.714Z,20.00
2022-12-06T08:05:31.430Z,25.48
2022-12-06T08:10:37.551Z,19.30
2022-12-06T08:15:41.470Z,9.98
2022-12-06T08:20:45.199Z,12.73
2022-12-06T08:25:57.828Z,10.65
2022-12-06T08:31:07.225Z,13.60
2022-12-06T08:36:13.525Z,13.68
2022-12-06T08:41:36.760Z,9.52
2022-12-06T08:46:41.470Z,8.82
2022-12-06T08:51:46.859Z,13.45
2022-12-06T08:56:52.297Z,11.45
2022-12-06T09:01:56.083Z,15.73
2022-12-06T09:06:59.812Z,15.13
2022-12-06T09:12:05.263Z,14.18
2022-12-06T09:17:08.931Z,13.82
2022-12-06T09:22:12.622Z,13.57
2022-12-06T09:27:17.731Z,11.32
2022-12-06T09:32:21.449Z,14.38
2022-12-06T09:37:25.297Z,12.88
2022-12-06T09:42:52.232Z,10.50
2022-12-06T09:48:27.799Z,12.90
2022-12-06T09:53:44.183Z,8.90
2022-12-06T09:59:01.584Z,11.52
2022-12-06T10:04:19.346Z,10.50
2022-12-06T10:09:36.430Z,10.88
2022-12-06T10:15:13.159Z,7.87
2022-12-06T10:20:24.929Z,16.35
2022-12-06T10:25:35.082Z,16.33
2022-12-06T10:30:46.574Z,8.82
2022-12-06T10:35:56.953Z,8.70
2022-12-06T10:41:08.188Z,6.87
2022-12-06T10:46:38.045Z,3.80
2022-12-06T10:51:45.997Z,9.07
2022-12-06T10:56:53.530Z,6.07
2022-12-06T11:02:02.765Z,5.40
2022-12-06T11:07:13.371Z,7.12
2022-12-06T11:12:29.565Z,7.43
2022-12-06T11:17:40.598Z,6.37
2022-12-06T11:22:51.878Z,6.70
2022-12-06T11:28:01.844Z,8.48
2022-12-06T11:33:07.050Z,6.82
2022-12-06T11:38:10.742Z,9.02
2022-12-06T11:43:19.119Z,8.65
2022-12-06T11:53:33.463Z,4.30
2022-12-06T12:03:46.102Z,7.32
2022-12-06T12:08:59.690Z,5.53
2022-12-06T12:14:06.449Z,6.57
2022-12-06T12:19:28.410Z,6.80
2022-12-06T12:30:28.465Z,5.15
2022-12-06T12:35:35.451Z,6.55
2022-12-06T12:40:42.321Z,4.45
2022-12-06T12:46:06.655Z,5.55
2022-12-06T12:51:25.314Z,5.25
2022-12-06T12:56:31.888Z,3.55
2022-12-06T13:01:43.185Z,3.83
2022-12-06T13:06:52.036Z,5.30
2022-12-06T13:11:59.353Z,3.03
2022-12-06T13:17:08.634Z,2.12
2022-12-06T13:22:20.068Z,5.57
2022-12-06T13:27:24.820Z,5.65
2022-12-06T13:32:33.562Z,3.90
2022-12-06T13:37:47.055Z,5.68
2022-12-06T13:42:50.777Z,8.68
2022-12-06T13:47:54.523Z,7.72
2022-12-06T13:53:03.247Z,9.35
2022-12-06T13:58:40.567Z,3.92
2022-12-06T14:03:56.215Z,6.33
2022-12-06T14:09:01.945Z,11.25
2022-12-06T14:14:09.226Z,7.22
2022-12-06T14:19:21.509Z,7.90
2022-12-06T14:24:33.317Z,5.05
2022-12-06T14:29:37.293Z,6.22
2022-12-06T14:34:41.010Z,7.90
2022-12-06T14:39:52.276Z,9.43
2022-12-06T14:45:02.001Z,6.15
2022-12-06T14:50:25.901Z,7.18
2022-12-06T14:55:32.824Z,5.10
2022-12-06T15:00:39.533Z,6.43
2022-12-06T15:05:44.749Z,6.55
2022-12-06T15:11:00.627Z,4.45
2022-12-06T15:16:15.733Z,6.93
2022-12-06T15:21:19.548Z,4.40
2022-12-06T15:26:25.762Z,4.50
2022-12-06T15:31:31.881Z,11.95
2022-12-06T15:36:36.486Z,5.10
2022-12-06T15:41:42.184Z,3.05
2022-12-06T15:46:46.604Z,7.00
2022-12-06T15:51:50.724Z,9.15
2022-12-06T15:56:55.718Z,6.97
2022-12-06T16:01:59.521Z,3.97
2022-12-06T16:07:03.181Z,4.78
2022-12-06T16:12:08.756Z,4.40
2022-12-06T16:17:12.471Z,4.57
2022-12-06T16:22:16.226Z,2.95
2022-12-06T16:27:21.256Z,5.55
2022-12-06T16:32:25.002Z,4.10
2022-12-06T16:37:28.681Z,3.70
2022-12-06T16:42:33.761Z,5.35
2022-12-06T16:47:37.863Z,5.32
2022-12-06T16:52:41.584Z,2.42
2022-12-06T16:57:46.768Z,5.78
2022-12-06T17:02:50.909Z,4.15
2022-12-06T17:07:54.767Z,6.97
2022-12-06T17:12:59.884Z,4.28
2022-12-06T17:18:03.636Z,7.28
2022-12-06T17:23:07.321Z,5.45
2022-12-06T17:28:12.454Z,6.80
2022-12-06T17:33:16.130Z,5.00
2022-12-06T17:38:20.144Z,7.53
2022-12-06T17:43:25.257Z,4.87
2022-12-06T17:48:33.530Z,6.60
2022-12-06T17:53:39.923Z,7.28
2022-12-06T17:58:44.946Z,7.40
2022-12-06T18:03:51.527Z,8.48
2022-12-06T18:08:55.314Z,8.32
2022-12-06T18:14:00.707Z,6.05
2022-12-06T18:19:08.686Z,6.50
2022-12-06T18:29:27.294Z,7.72
2022-12-06T18:34:31.385Z,9.68
2022-12-06T18:39:35.082Z,8.20
2022-12-06T18:44:40.228Z,7.80
2022-12-06T18:49:43.930Z,9.30
2022-12-06T18:54:47.644Z,12.65
2022-12-06T18:59:52.715Z,7.75
2022-12-06T19:04:56.459Z,12.10
2022-12-06T19:10:00.585Z,10.40
2022-12-06T19:15:07.159Z,11.90
2022-12-06T19:20:11.148Z,10.77
2022-12-06T19:25:14.893Z,13.68
2022-12-06T19:30:20.329Z,14.48
2022-12-06T19:35:24.074Z,11.68
2022-12-06T19:40:28.208Z,12.05
2022-12-06T19:45:33.280Z,14.20
2022-12-06T19:50:37.100Z,16.60
2022-12-06T19:55:46.560Z,13.43
2022-12-06T20:00:51.908Z,20.27
2022-12-06T20:06:02.285Z,12.93
2022-12-06T20:11:28.847Z,21.17
2022-12-06T20:16:34.223Z,15.20
2022-12-06T20:21:38.097Z,15.98
2022-12-06T20:26:42.158Z,16.55
2022-12-06T20:31:48.432Z,17.00
2022-12-06T20:36:52.168Z,14.13
2022-12-06T20:41:56.170Z,15.95
2022-12-06T20:47:01.410Z,12.75
2022-12-06T20:52:06.852Z,14.93
2022-12-06T20:57:10.572Z,18.37
2022-12-06T21:02:15.645Z,14.73
2022-12-06T21:07:19.481Z,15.93
2022-12-06T21:12:23.253Z,11.57
2022-12-06T21:17:28.356Z,15.30
2022-12-06T21:22:32.039Z,18.45
2022-12-06T21:27:35.867Z,25.60
2022-12-06T21:32:40.993Z,28.75
2022-12-06T21:37:44.732Z,30.42
2022-12-06T21:42:48.533Z,16.27
2022-12-06T21:47:53.652Z,19.83
2022-12-06T21:52:58.015Z,25.48
2022-12-06T21:58:01.739Z,15.73
2022-12-06T22:03:06.878Z,18.98
2022-12-06T22:08:10.740Z,16.62
2022-12-06T22:13:14.502Z,18.00
2022-12-06T22:18:19.667Z,16.33
2022-12-06T22:23:23.389Z,16.75
2022-12-06T22:28:27.566Z,15.88
2022-12-06T22:33:33.383Z,19.45
2022-12-06T22:38:37.466Z,17.83
2022-12-06T22:43:41.178Z,19.58
2022-12-06T22:48:46.704Z,16.00
2022-12-06T22:53:54.247Z,17.15
2022-12-06T22:58:59.953Z,23.40
2022-12-06T23:04:07.954Z,20.20
2022-12-06T23:09:15.465Z,17.90
2022-12-06T23:14:19.174Z,14.00
2022-12-06T23:19:24.305Z,14.00
2022-12-06T23:24:28.026Z,11.15
2022-12-06T23:29:31.752Z,12.68
2022-12-06T23:34:36.845Z,11.48
2022-12-06T23:39:40.563Z,9.98
2022-12-06T23:44:44.334Z,9.25
2022-12-06T23:49:49.420Z,9.85
2022-12-06T23:54:53.074Z,12.80
2022-12-06T23:59:56.738Z,12.23
